Fulton, OH

7:47 AM EST on February 28, 2015 (GMT -0500)
KOHMAREN3 | Change Station
CLOSE
Current Station
Personal Weather Station
Location: Marengo, OH
Elevation: 1064 ft
Nearby Weather Stations
Active Advisory: Winter Storm Watch Active Notice: Record Report

Elev 1064 ft 40.39 °N, 82.84 °W | Updated 17 minutes ago

Partly Cloudy
Partly Cloudy
-2.7 °F
Feels Like -3 °F
N
0.0
Wind Variable Wind from West
Gusts 0.0 mph

Today
High -- | Low -- °F
--% Chance of Precip.
Yesterday
High -- | Low -- °F
Precip. -- in
7:06 AM 6:21 PM
Waxing Gibbous, 77% visible
Pressure 30.80 in
Visibility 6.0 miles
Clouds Clear
Windchill -3 °F
Dew Point -6 °F
Humidity 85%
Rainfall 0.00 in
Snow Depth Not available.
UV 0 out of 12
Pollen .40 out of 12
Air Quality Not available.
Flu Activity Not available.
METAR KMNN 281153Z AUTO 00000KT 6SM HZ CLR M23/M27 A3071 RMK AO2 SLP428 T12331272 11200 21250 53009 TSNO

More Conditions Fewer Conditions

Pressure 30.80 in
Visibility 6.0 miles
Clouds Clear
Windchill -3 °F
Dew Point -6 °F
Humidity 85%
Rainfall 0.00 in
Snow Depth Not available.
UV 0 out of 12
Pollen .40 out of 12
Air Quality Not available.
Flu Activity Not available.
METAR KMNN 281153Z AUTO 00000KT 6SM HZ CLR M23/M27 A3071 RMK AO2 SLP428 T12331272 11200 21250 53009 TSNO

More Conditions Fewer Conditions

10-Day Weather Forecast

Almanac

Astronomy

Feb. 28, 2015 Rise Set
Actual Time
Civil Twilight
Nautical Twilight
Astronomical Twilight
Moon
Length of Visible Light
Length of Day
Tomorrow will be .
, % of the Moon is Illuminated

Today's Extremes

State Highs State Lows

Community

WunderPhotos

Upload Photos

1,801,000 photos uploaded!

WunderBlogs® & News

Nearby

Air Quality

  Air Quality AQ Index Pollutant
Not available.

Snow Depth

Station Depth Elevation

Earthquake Activity

City Distance Mag. Time & Date
Minimum magnitude displayed is 2.5.

Coastal Water Temperatures

Place Temperature

Nearby Weather Stations

Winter Storm Watch
Statement as of 2:54 AM EST on February 28, 2015

... Winter Storm Watch now in effect from late tonight through
late Sunday night...

* snow accumulations... 4 to 8 inches.

* Snow is expected to spread into the area tonight and then
continue into Sunday night.

* The heaviest snow is expected during the day on Sunday.

* The snow is expected to gradually end from west to east Sunday
night.

* Impacts... snow will be the main threat during this event.
Hazardous travel conditions are expected due to reduced
visibility from the snow and snow accumulation.

Precautionary/preparedness actions...

A Winter Storm Watch means that heavy snow is possible. If you
are within the watch area... remain alert to rapidly changing
weather conditions. Stay tuned to the National Weather Service or
the local news media for the latest updates and possible
warnings.